PBJ weather

Tavie Airport
Paama Island, Malampa, Vanuatu

Public forecast

Using degrees Celsius for public forecast. Weather courtesy of forecast.io.

METAR (pilot weather report)

Report is more than 6 hours old.

Closest report is Lamap Airport, 24.7 nm (45.7 km) W. Retrieved 2019/05/29 19:00 UTC (26 days ago):

NVSL 291900Z NLI

TAF (pilot weather forecast)

Closest forecast is Lamap Airport, 24.7 nm (45.7 km) W. Retrieved 2019/06/25 06:30 UTC (23 minutes ago):

TAF NVSL 250430Z 2506/2606 09010G20KT 9999 SCT020 BKN040 PROB40 INTER 2506/2510 8000 SHRA BKN018 BECMG 2508/2510 09010KT